Time;durP1;ratioP1;P1;durP2;ratioP2;P2;SDS_P1;SDS_P2;PMS_P1;PMS_P2;Temp;Humidity;BMP_temperature;BMP_pressure;BME280_temperature;BME280_humidity;BME280_pressure;Samples;Min_cycle;Max_cycle;Signal;HPM_P1;HPM_P2
2022/03/16 00:02:06;;;;;;;;;;;;;;;-2.15;73.75;100959.31;5132086;27;1906;-58
2022/03/16 00:04:33;;;;;;;;;;;;;;;-2.09;73.53;100960.84;5132499;27;832;-58
2022/03/16 00:07:00;;;;;;;;;;;;;;;-2.17;73.71;100950.66;5132539;28;787;-58
2022/03/16 00:09:26;;;;;;;;;;;;;;;-2.06;73.28;100957.56;5132471;28;810;-58
2022/03/16 00:11:51;;;;;;;;;;;;;;;-1.76;73.69;100961.78;5132505;28;806;-58
2022/03/16 00:14:18;;;;;;;;;;;;;;;-1.54;72.61;100963.91;5132471;28;903;-58
2022/03/16 00:16:45;;;;;;;;;;;;;;;-1.44;72.81;100957.56;5132474;28;814;-58
2022/03/16 00:19:12;;;;;;;;;;;;;;;-1.36;71.95;100956.91;5134748;27;807;-58
2022/03/16 00:21:39;;;;;;;;;;;;;;;-1.38;71.67;100950.16;5136630;27;787;-58
2022/03/16 00:24:05;;;;;;;;;;;;;;;-1.50;72.14;100942.47;5136645;27;1947;-58
2022/03/16 00:26:31;;;;;;;;;;;;;;;-1.53;72.90;100943.06;5136440;27;806;-58
2022/03/16 00:28:58;;;;;;;;;;;;;;;-1.34;72.92;100937.63;5136510;27;815;-58
2022/03/16 00:31:24;;;;;;;;;;;;;;;-1.27;72.53;100930.72;5136596;27;806;-58
2022/03/16 00:33:51;;;;;;;;;;;;;;;-1.23;71.92;100939.06;5136523;27;869;-58
2022/03/16 00:36:21;;;;;;;;;;;;;;;-1.19;71.67;100925.72;5136259;27;885;-58
2022/03/16 00:38:48;;;;;;;;;;;;;;;-1.15;71.58;100932.97;5136406;27;826;-58
2022/03/16 00:41:15;;;;;;;;;;;;;;;-1.23;71.58;100933.66;5136256;27;803;-58
2022/03/16 00:43:42;;;;;;;;;;;;;;;-1.30;71.85;100934.03;5136228;27;1886;-58
2022/03/16 00:46:08;;;;;;;;;;;;;;;-1.38;72.17;100923.84;5136170;27;871;-58
2022/03/16 00:48:35;;;;;;;;;;;;;;;-1.36;72.08;100918.94;5136142;27;802;-58
2022/03/16 00:51:01;;;;;;;;;;;;;;;-1.34;72.12;100905.88;5136106;27;826;-58
2022/03/16 00:53:27;;;;;;;;;;;;;;;-1.29;72.28;100913.94;5136044;27;794;-58
2022/03/16 00:55:53;;;;;;;;;;;;;;;-1.38;72.60;100904.06;5135886;27;840;-58
2022/03/16 00:58:20;;;;;;;;;;;;;;;-1.34;72.70;100908.59;5136067;27;862;-58
2022/03/16 01:00:47;;;;;;;;;;;;;;;-1.32;72.45;100913.72;5136407;27;865;-58
2022/03/16 01:03:14;;;;;;;;;;;;;;;-1.47;72.19;100918.28;5135563;27;1889;-59
2022/03/16 01:05:40;;;;;;;;;;;;;;;-1.67;72.28;100913.16;5136171;27;834;-58
2022/03/16 01:08:07;;;;;;;;;;;;;;;-1.82;72.58;100899.81;5136383;27;843;-58
2022/03/16 01:10:33;;;;;;;;;;;;;;;-2.00;73.01;100890.56;5136200;27;844;-58
2022/03/16 01:13:00;;;;;;;;;;;;;;;-2.07;73.41;100890.91;5135713;27;858;-58
2022/03/16 01:15:27;;;;;;;;;;;;;;;-2.00;74.26;100885.16;5136266;27;754;-58
2022/03/16 01:17:53;;;;;;;;;;;;;;;-1.99;74.25;100870.50;5135812;27;806;-58
2022/03/16 01:20:20;;;;;;;;;;;;;;;-2.00;73.92;100877.84;5135628;27;795;-58
2022/03/16 01:22:47;;;;;;;;;;;;;;;-1.84;74.23;100873.00;5135375;27;1885;-58
2022/03/16 01:25:13;;;;;;;;;;;;;;;-1.60;74.55;100877.53;5135311;27;964;-58
2022/03/16 01:27:40;;;;;;;;;;;;;;;-1.45;74.42;100878.13;5135408;27;843;-58
2022/03/16 01:30:06;;;;;;;;;;;;;;;-1.31;73.81;100878.16;5116077;27;1216;-58
2022/03/16 01:32:33;;;;;;;;;;;;;;;-1.19;73.88;100885.03;5135182;27;1938;-58
2022/03/16 01:34:59;;;;;;;;;;;;;;;-1.10;73.70;100872.41;5135240;27;807;-58
2022/03/16 01:37:26;;;;;;;;;;;;;;;-1.06;73.07;100859.84;5116830;27;1264;-58
2022/03/16 01:39:51;;;;;;;;;;;;;;;-1.03;72.99;100856.53;5135099;27;876;-58
2022/03/16 01:42:20;;;;;;;;;;;;;;;-0.99;72.32;100854.81;5135176;27;807;-58
2022/03/16 01:44:49;;;;;;;;;;;;;;;-0.94;72.30;100853.91;5135026;27;830;-58
2022/03/16 01:47:19;;;;;;;;;;;;;;;-0.93;71.50;100853.63;5134895;27;836;-58
2022/03/16 01:49:46;;;;;;;;;;;;;;;-0.94;71.75;100862.88;5135884;27;794;-58
2022/03/16 01:52:16;;;;;;;;;;;;;;;-1.07;72.10;100844.66;5135052;27;1877;-58
2022/03/16 01:54:42;;;;;;;;;;;;;;;-1.26;73.06;100825.72;5135146;27;806;-58
2022/03/16 01:57:12;;;;;;;;;;;;;;;-1.29;73.10;100823.59;5134835;27;835;-58
2022/03/16 01:59:39;;;;;;;;;;;;;;;-1.09;73.18;100830.56;5134869;27;830;-58
2022/03/16 02:02:06;;;;;;;;;;;;;;;-0.88;72.25;100820.16;5134550;27;1198;-58
2022/03/16 02:04:33;;;;;;;;;;;;;;;-0.80;72.03;100822.19;5135003;27;814;-58
2022/03/16 02:06:59;;;;;;;;;;;;;;;-0.74;71.84;100831.84;5116203;27;777;-58
2022/03/16 02:09:26;;;;;;;;;;;;;;;-0.75;71.84;100827.50;5134705;27;806;-58
2022/03/16 02:11:53;;;;;;;;;;;;;;;-0.81;72.01;100836.88;5134400;27;1899;-58
2022/03/16 02:14:20;;;;;;;;;;;;;;;-0.84;72.42;100830.09;5134510;27;889;-58
2022/03/16 02:16:46;;;;;;;;;;;;;;;-0.80;72.43;100819.47;5134445;27;795;-58
2022/03/16 02:19:13;;;;;;;;;;;;;;;-0.77;72.01;100826.19;5134397;27;1082;-58
2022/03/16 02:21:40;;;;;;;;;;;;;;;-0.73;72.31;100827.19;5134362;27;893;-58
2022/03/16 02:24:08;;;;;;;;;;;;;;;-0.64;72.22;100831.63;5134238;27;771;-58
2022/03/16 02:26:35;;;;;;;;;;;;;;;-0.40;71.28;100821.69;5134219;27;893;-58
2022/03/16 02:29:01;;;;;;;;;;;;;;;-0.28;70.68;100814.63;5134231;27;850;-58
2022/03/16 02:31:28;;;;;;;;;;;;;;;-0.27;70.47;100821.63;5134289;27;857;-58
2022/03/16 02:33:55;;;;;;;;;;;;;;;-0.37;70.57;100824.56;5134060;27;1925;-58
2022/03/16 02:36:21;;;;;;;;;;;;;;;-0.46;70.80;100812.81;5134053;27;865;-58
2022/03/16 02:38:48;;;;;;;;;;;;;;;-0.32;70.40;100823.66;5134032;27;807;-58
2022/03/16 02:41:14;;;;;;;;;;;;;;;-0.13;69.56;100828.97;5133705;27;889;-58
2022/03/16 02:43:41;;;;;;;;;;;;;;;-0.03;69.04;100818.66;5133252;27;811;-58
2022/03/16 02:46:08;;;;;;;;;;;;;;;0.07;68.55;100812.19;5134056;27;791;-58
2022/03/16 02:48:35;;;;;;;;;;;;;;;0.17;68.02;100790.22;5134226;27;869;-59
2022/03/16 02:51:02;;;;;;;;;;;;;;;0.18;67.58;100788.28;5134002;27;822;-58
2022/03/16 02:53:28;;;;;;;;;;;;;;;0.18;67.16;100796.44;5133843;27;1948;-58
2022/03/16 02:55:55;;;;;;;;;;;;;;;0.14;67.36;100811.78;5133953;27;795;-58
2022/03/16 02:58:21;;;;;;;;;;;;;;;0.09;67.60;100809.19;5133973;27;882;-58
2022/03/16 03:00:47;;;;;;;;;;;;;;;0.05;67.81;100819.06;5133599;27;1295;-58
2022/03/16 03:03:14;;;;;;;;;;;;;;;0.02;67.70;100804.16;5133199;27;1345;-58
2022/03/16 03:05:40;;;;;;;;;;;;;;;-0.15;67.95;100788.53;5115034;27;1214;-58
2022/03/16 03:08:07;;;;;;;;;;;;;;;-0.32;68.47;100775.56;5133417;27;870;-58
2022/03/16 03:10:33;;;;;;;;;;;;;;;-0.37;69.14;100778.38;5114871;27;1201;-58
2022/03/16 03:13:00;;;;;;;;;;;;;;;-0.47;69.63;100797.63;5133539;27;1898;-58
2022/03/16 03:15:27;;;;;;;;;;;;;;;-0.44;69.63;100821.47;5133469;27;798;-58
2022/03/16 03:17:57;;;;;;;;;;;;;;;-0.42;70.02;100813.81;5133185;27;830;-58
2022/03/16 03:20:22;;;;;;;;;;;;;;;-0.38;70.13;100793.09;5133519;27;846;-58
2022/03/16 03:22:49;;;;;;;;;;;;;;;-0.48;70.32;100794.09;5133117;27;948;-60
2022/03/16 03:25:16;;;;;;;;;;;;;;;-0.63;70.80;100767.25;5133023;27;850;-60
2022/03/16 03:27:42;;;;;;;;;;;;;;;-0.76;70.78;100752.59;5133355;27;795;-60
2022/03/16 03:30:10;;;;;;;;;;;;;;;-0.83;71.43;100757.63;5133028;27;831;-58
2022/03/16 03:32:36;;;;;;;;;;;;;;;-0.84;71.68;100756.81;5132835;27;1905;-58
2022/03/16 03:35:03;;;;;;;;;;;;;;;-0.84;72.14;100740.53;5133161;27;818;-58
2022/03/16 03:37:30;;;;;;;;;;;;;;;-0.76;71.81;100744.44;5132834;27;874;-58
2022/03/16 03:39:57;;;;;;;;;;;;;;;-0.47;71.47;100743.28;5132914;27;846;-58
2022/03/16 03:42:24;;;;;;;;;;;;;;;-0.22;70.74;100737.28;5132789;27;834;-58
2022/03/16 03:44:50;;;;;;;;;;;;;;;-0.09;69.80;100738.34;5132771;27;846;-58
2022/03/16 03:47:17;;;;;;;;;;;;;;;0.07;69.26;100748.88;5132774;27;827;-58
2022/03/16 03:49:43;;;;;;;;;;;;;;;0.11;68.71;100750.66;5132935;27;810;-58
2022/03/16 03:52:10;;;;;;;;;;;;;;;-0.19;69.48;100735.06;5132711;27;1881;-58
2022/03/16 03:54:36;;;;;;;;;;;;;;;-0.46;69.79;100734.06;5132299;27;810;-58
2022/03/16 03:57:03;;;;;;;;;;;;;;;-0.66;70.52;100732.59;5132647;27;857;-58
2022/03/16 03:59:30;;;;;;;;;;;;;;;-0.80;70.86;100738.03;5132611;27;953;-58
2022/03/16 04:01:57;;;;;;;;;;;;;;;-0.94;70.89;100729.91;5132498;27;1334;-58
2022/03/16 04:04:25;;;;;;;;;;;;;;;-1.06;71.61;100729.59;5132435;27;1135;-58
2022/03/16 04:06:52;;;;;;;;;;;;;;;-1.13;71.83;100734.59;5132576;27;859;-58
2022/03/16 04:09:18;;;;;;;;;;;;;;;-1.20;71.93;100726.88;5132551;28;814;-58
2022/03/16 04:11:45;;;;;;;;;;;;;;;-1.26;72.11;100719.91;5132388;28;972;-58
2022/03/16 04:14:12;;;;;;;;;;;;;;;-1.33;72.39;100720.31;5132423;28;1979;-58
2022/03/16 04:16:39;;;;;;;;;;;;;;;-1.35;72.67;100724.44;5132376;28;873;-58
2022/03/16 04:19:05;;;;;;;;;;;;;;;-1.33;72.81;100719.53;5132765;28;889;-58
2022/03/16 04:21:33;;;;;;;;;;;;;;;-1.25;72.98;100716.91;5132366;28;901;-58
2022/03/16 04:24:01;;;;;;;;;;;;;;;-1.19;73.10;100706.78;5132269;28;881;-58
2022/03/16 04:26:28;;;;;;;;;;;;;;;-1.19;73.06;100708.69;5132341;28;814;-58
2022/03/16 04:28:55;;;;;;;;;;;;;;;-1.06;73.14;100711.41;5132346;28;990;-60
2022/03/16 04:31:21;;;;;;;;;;;;;;;-0.96;72.82;100706.84;5132260;28;819;-58
2022/03/16 04:33:48;;;;;;;;;;;;;;;-0.93;72.81;100714.41;5132178;28;1882;-58
2022/03/16 04:36:14;;;;;;;;;;;;;;;-0.88;72.52;100709.66;5132239;28;838;-58
2022/03/16 04:38:41;;;;;;;;;;;;;;;-0.84;72.23;100712.59;5132189;28;803;-58
2022/03/16 04:41:08;;;;;;;;;;;;;;;-0.81;72.06;100709.28;5132219;28;854;-58
2022/03/16 04:43:35;;;;;;;;;;;;;;;-0.74;72.08;100708.88;5132098;28;810;-57
2022/03/16 04:46:01;;;;;;;;;;;;;;;-0.65;72.05;100707.03;5132201;28;842;-58
2022/03/16 04:48:28;;;;;;;;;;;;;;;-0.50;71.43;100703.19;5132099;28;798;-58
2022/03/16 04:50:54;;;;;;;;;;;;;;;-0.42;71.16;100695.09;5132090;28;863;-58
2022/03/16 04:53:20;;;;;;;;;;;;;;;-0.43;71.03;100701.66;5131874;28;1910;-58
2022/03/16 04:55:46;;;;;;;;;;;;;;;-0.42;71.16;100705.16;5132124;28;911;-58
2022/03/16 04:58:13;;;;;;;;;;;;;;;-0.42;71.31;100697.03;5131979;28;860;-58
2022/03/16 05:00:38;;;;;;;;;;;;;;;-0.44;71.14;100701.97;5132067;28;889;-58
2022/03/16 05:03:05;;;;;;;;;;;;;;;-0.45;71.45;100697.63;5131641;28;1214;-58
2022/03/16 05:05:32;;;;;;;;;;;;;;;-0.39;71.52;100696.38;5133010;27;846;-58
2022/03/16 05:07:59;;;;;;;;;;;;;;;-0.27;71.16;100690.44;5135863;27;869;-58
2022/03/16 05:10:26;;;;;;;;;;;;;;;-0.09;71.12;100694.06;5135720;27;850;-58
2022/03/16 05:12:52;;;;;;;;;;;;;;;0.04;70.76;100697.84;5135642;27;2044;-58
2022/03/16 05:15:20;;;;;;;;;;;;;;;0.03;70.75;100697.03;5135676;27;890;-58
2022/03/16 05:17:47;;;;;;;;;;;;;;;-0.01;71.04;100696.06;5135630;27;842;-58
2022/03/16 05:20:14;;;;;;;;;;;;;;;0.09;70.76;100692.28;5135431;27;988;-58
2022/03/16 05:22:48;;;;;;;;;;;;;;;0.23;70.38;100700.34;5135404;27;823;-58
2022/03/16 05:25:16;;;;;;;;;;;;;;;0.29;69.70;100691.75;5135555;27;901;-58
2022/03/16 05:27:43;;;;;;;;;;;;;;;0.34;69.23;100691.66;5135368;27;941;-58
2022/03/16 05:30:11;;;;;;;;;;;;;;;0.39;68.75;100686.06;5135408;27;791;-58
2022/03/16 05:32:41;;;;;;;;;;;;;;;0.42;68.59;100676.47;5135179;27;1947;-58
2022/03/16 05:35:09;;;;;;;;;;;;;;;0.43;67.68;100683.53;5135203;27;854;-58
2022/03/16 05:37:35;;;;;;;;;;;;;;;0.43;67.78;100675.38;5135896;27;790;-58
2022/03/16 05:40:03;;;;;;;;;;;;;;;0.44;67.89;100668.78;5135201;27;1342;-58
2022/03/16 05:42:29;;;;;;;;;;;;;;;0.48;67.61;100669.78;5117107;27;866;-58
2022/03/16 05:44:56;;;;;;;;;;;;;;;0.50;67.64;100669.47;5135081;27;848;-58
2022/03/16 05:47:23;;;;;;;;;;;;;;;0.51;67.56;100668.34;5135230;27;862;-58
2022/03/16 05:49:53;;;;;;;;;;;;;;;0.54;67.79;100673.16;5134961;27;885;-58
2022/03/16 05:52:21;;;;;;;;;;;;;;;0.56;67.64;100660.84;5134971;27;1882;-58
2022/03/16 05:54:49;;;;;;;;;;;;;;;0.65;67.51;100670.97;5134871;27;876;-58
2022/03/16 05:57:15;;;;;;;;;;;;;;;0.72;67.87;100660.44;5134913;27;821;-58
2022/03/16 05:59:42;;;;;;;;;;;;;;;0.77;67.11;100665.75;5134688;27;934;-58
2022/03/16 06:02:09;;;;;;;;;;;;;;;0.77;67.17;100671.97;5134437;27;1174;-58
2022/03/16 06:04:37;;;;;;;;;;;;;;;0.77;67.70;100676.63;5134733;27;893;-58
2022/03/16 06:07:04;;;;;;;;;;;;;;;0.66;67.47;100678.00;5134590;27;917;-58
2022/03/16 06:09:30;;;;;;;;;;;;;;;0.28;68.51;100665.69;5134618;27;861;-58
2022/03/16 06:11:57;;;;;;;;;;;;;;;0.08;69.28;100669.72;5134594;27;2000;-58
2022/03/16 06:14:24;;;;;;;;;;;;;;;0.17;69.56;100680.63;5134477;27;932;-58
2022/03/16 06:16:52;;;;;;;;;;;;;;;0.38;69.47;100683.63;5134605;27;889;-58
2022/03/16 06:19:19;;;;;;;;;;;;;;;0.59;69.12;100670.31;5134503;27;929;-58
2022/03/16 06:21:45;;;;;;;;;;;;;;;0.80;68.37;100667.81;5134340;27;826;-58
2022/03/16 06:24:12;;;;;;;;;;;;;;;0.96;67.75;100673.63;5134316;27;865;-58
2022/03/16 06:26:39;;;;;;;;;;;;;;;1.08;67.55;100670.28;5134371;27;830;-58
2022/03/16 06:29:07;;;;;;;;;;;;;;;1.19;67.35;100661.50;5134251;27;862;-58
2022/03/16 06:31:34;;;;;;;;;;;;;;;1.28;66.95;100645.19;5134237;27;847;-59
2022/03/16 06:34:01;;;;;;;;;;;;;;;1.32;66.50;100653.50;5134108;27;1935;-58
2022/03/16 06:36:28;;;;;;;;;;;;;;;1.33;66.18;100666.81;5134015;27;940;-58
2022/03/16 06:38:54;;;;;;;;;;;;;;;1.33;66.64;100663.28;5134102;27;834;-58
2022/03/16 06:41:21;;;;;;;;;;;;;;;1.27;66.18;100661.84;5134159;27;912;-59
2022/03/16 06:43:47;;;;;;;;;;;;;;;1.21;66.46;100669.34;5133966;27;857;-58
2022/03/16 06:46:14;;;;;;;;;;;;;;;1.21;67.12;100664.69;5134010;27;818;-57
2022/03/16 06:48:42;;;;;;;;;;;;;;;1.32;66.85;100656.22;5134056;27;866;-58
2022/03/16 06:51:07;;;;;;;;;;;;;;;1.42;67.07;100683.97;5133803;27;910;-60
2022/03/16 06:53:34;;;;;;;;;;;;;;;1.54;66.49;100679.81;5133922;27;1959;-60
2022/03/16 06:56:03;;;;;;;;;;;;;;;1.70;65.98;100675.47;5133897;27;838;-60
2022/03/16 06:58:30;;;;;;;;;;;;;;;1.87;66.38;100679.31;5133603;27;1036;-60
2022/03/16 07:00:56;;;;;;;;;;;;;;;1.95;65.84;100671.13;5133565;27;1066;-60
2022/03/16 07:03:23;;;;;;;;;;;;;;;2.03;65.85;100670.31;5133314;27;1204;-59
2022/03/16 07:05:49;;;;;;;;;;;;;;;2.02;65.74;100681.53;5133699;27;841;-60
2022/03/16 07:08:16;;;;;;;;;;;;;;;1.96;65.51;100671.91;5133734;27;869;-60
2022/03/16 07:10:43;;;;;;;;;;;;;;;2.01;65.88;100658.13;5133508;27;870;-60
2022/03/16 07:13:11;;;;;;;;;;;;;;;2.00;65.24;100678.34;5115225;27;1907;-60
2022/03/16 07:15:41;;;;;;;;;;;;;;;1.95;64.55;100667.59;5133316;27;914;-60
2022/03/16 07:18:09;;;;;;;;;;;;;;;1.97;64.59;100681.72;5133342;27;802;-60
2022/03/16 07:20:37;;;;;;;;;;;;;;;1.89;64.67;100664.25;5132958;27;986;-60
2022/03/16 07:23:06;;;;;;;;;;;;;;;1.78;64.52;100676.59;5133529;27;878;-60
2022/03/16 07:25:33;;;;;;;;;;;;;;;1.69;65.05;100668.44;5133156;27;861;-58
2022/03/16 07:28:00;;;;;;;;;;;;;;;1.78;65.49;100669.22;5132375;27;882;-59
2022/03/16 07:30:27;;;;;;;;;;;;;;;1.73;65.52;100669.41;5133103;27;811;-58
2022/03/16 07:32:53;;;;;;;;;;;;;;;1.72;64.78;100662.31;5132957;27;1985;-60
2022/03/16 07:35:26;;;;;;;;;;;;;;;1.77;65.21;100651.28;5132940;27;889;-60
2022/03/16 07:37:54;;;;;;;;;;;;;;;1.87;65.41;100649.34;5132914;27;834;-58
2022/03/16 07:40:21;;;;;;;;;;;;;;;1.99;65.90;100649.47;5133124;27;822;-57
2022/03/16 07:42:48;;;;;;;;;;;;;;;2.24;65.46;100643.16;5132844;27;861;-60
2022/03/16 07:45:15;;;;;;;;;;;;;;;2.45;64.80;100643.25;5132860;27;779;-59
2022/03/16 07:47:42;;;;;;;;;;;;;;;2.62;63.95;100647.84;5132694;27;869;-58
2022/03/16 07:50:09;;;;;;;;;;;;;;;2.62;64.08;100653.31;5132673;27;969;-58
2022/03/16 07:52:35;;;;;;;;;;;;;;;2.77;64.51;100651.13;5132860;27;1940;-58
2022/03/16 07:55:02;;;;;;;;;;;;;;;2.84;64.50;100649.50;5132723;27;834;-58
2022/03/16 07:57:29;;;;;;;;;;;;;;;2.98;64.36;100640.25;5132627;27;836;-58
2022/03/16 07:59:56;;;;;;;;;;;;;;;3.07;63.68;100624.59;5132577;27;893;-58
2022/03/16 08:02:23;;;;;;;;;;;;;;;3.14;62.89;100627.63;5132222;27;1387;-58
2022/03/16 08:04:49;;;;;;;;;;;;;;;3.31;63.79;100621.22;5132492;27;945;-58
2022/03/16 08:07:16;;;;;;;;;;;;;;;3.63;63.08;100624.34;5132530;27;897;-58
2022/03/16 08:09:42;;;;;;;;;;;;;;;3.78;62.29;100629.19;5132540;28;806;-58
2022/03/16 08:12:09;;;;;;;;;;;;;;;3.89;62.45;100622.16;5113890;28;1910;-59
2022/03/16 08:14:36;;;;;;;;;;;;;;;3.95;61.94;100625.50;5132631;28;865;-57
2022/03/16 08:17:02;;;;;;;;;;;;;;;4.15;61.41;100621.06;5132722;28;838;-57
2022/03/16 08:19:29;;;;;;;;;;;;;;;4.47;61.35;100611.19;5132312;28;1056;-58
2022/03/16 08:21:56;;;;;;;;;;;;;;;4.80;60.09;100618.53;5132505;28;897;-58
2022/03/16 08:24:22;;;;;;;;;;;;;;;4.88;59.68;100620.31;5132332;28;850;-57
2022/03/16 08:26:49;;;;;;;;;;;;;;;5.26;59.27;100623.81;5132358;28;869;-59
2022/03/16 08:29:15;;;;;;;;;;;;;;;5.60;59.14;100616.94;5132634;28;806;-57
2022/03/16 08:31:41;;;;;;;;;;;;;;;5.77;57.73;100621.34;5132313;28;878;-58
2022/03/16 08:34:07;;;;;;;;;;;;;;;6.10;57.88;100607.38;5132430;28;1890;-59
2022/03/16 08:36:34;;;;;;;;;;;;;;;6.08;57.32;100603.38;5132427;28;826;-59
2022/03/16 08:39:03;;;;;;;;;;;;;;;5.91;57.69;100604.47;5114075;27;1470;-59
2022/03/16 08:41:31;;;;;;;;;;;;;;;6.00;58.06;100602.41;5136248;27;922;-59
2022/03/16 08:43:58;;;;;;;;;;;;;;;6.11;57.11;100597.19;5136259;27;870;-59
2022/03/16 08:46:25;;;;;;;;;;;;;;;6.07;56.97;100588.06;5136203;27;967;-59
2022/03/16 08:48:52;;;;;;;;;;;;;;;5.89;56.94;100591.13;5136189;27;874;-59
2022/03/16 08:51:18;;;;;;;;;;;;;;;5.76;57.85;100588.78;5136160;27;866;-59
2022/03/16 08:53:45;;;;;;;;;;;;;;;5.66;58.18;100584.59;5136048;27;1956;-59
2022/03/16 08:56:13;;;;;;;;;;;;;;;5.61;58.53;100580.16;5135989;27;859;-58
2022/03/16 08:58:39;;;;;;;;;;;;;;;5.51;58.25;100577.94;5135979;27;879;-58
2022/03/16 09:01:06;;;;;;;;;;;;;;;5.43;58.22;100581.59;5135881;27;1180;-59
2022/03/16 09:03:33;;;;;;;;;;;;;;;5.38;58.39;100599.09;5117275;27;1334;-59
2022/03/16 09:06:00;;;;;;;;;;;;;;;5.45;58.24;100585.59;5135888;27;818;-59
2022/03/16 09:08:26;;;;;;;;;;;;;;;5.63;58.09;100568.84;5135766;27;969;-59
2022/03/16 09:10:55;;;;;;;;;;;;;;;5.68;57.95;100574.06;5135826;27;904;-59
2022/03/16 09:13:20;;;;;;;;;;;;;;;5.92;58.00;100565.69;5135595;27;1968;-59
2022/03/16 09:15:49;;;;;;;;;;;;;;;6.26;56.86;100562.66;5117208;27;1234;-59
2022/03/16 09:18:15;;;;;;;;;;;;;;;6.49;56.91;100571.06;5135467;27;859;-59
2022/03/16 09:20:42;;;;;;;;;;;;;;;6.65;55.63;100571.81;5135479;27;826;-59
2022/03/16 09:23:09;;;;;;;;;;;;;;;6.78;55.87;100571.72;5135851;27;894;-59
2022/03/16 09:25:37;;;;;;;;;;;;;;;7.10;56.10;100567.72;5135469;27;893;-59
2022/03/16 09:28:03;;;;;;;;;;;;;;;7.28;54.50;100565.34;5135494;27;798;-59
2022/03/16 09:30:30;;;;;;;;;;;;;;;7.58;54.09;100553.78;5135331;27;862;-59
2022/03/16 09:32:58;;;;;;;;;;;;;;;7.87;53.61;100560.59;5135335;27;1881;-59
2022/03/16 09:35:25;;;;;;;;;;;;;;;8.17;52.39;100554.41;5135309;27;794;-59
2022/03/16 09:37:53;;;;;;;;;;;;;;;8.23;51.60;100552.16;5135197;27;877;-59
2022/03/16 09:40:20;;;;;;;;;;;;;;;8.30;52.08;100550.31;5135266;27;906;-59
2022/03/16 09:42:48;;;;;;;;;;;;;;;8.08;52.59;100551.91;5135228;27;826;-59
2022/03/16 09:45:17;;;;;;;;;;;;;;;8.31;52.65;100543.63;5135081;27;926;-59
2022/03/16 09:47:45;;;;;;;;;;;;;;;8.41;52.29;100534.00;5134917;27;1021;-59
2022/03/16 09:50:11;;;;;;;;;;;;;;;8.38;51.94;100540.19;5135066;27;815;-59
2022/03/16 09:52:39;;;;;;;;;;;;;;;8.33;52.22;100535.81;5134292;27;1913;-60
2022/03/16 09:55:05;;;;;;;;;;;;;;;8.38;51.12;100535.50;5134992;27;814;-60
2022/03/16 09:57:32;;;;;;;;;;;;;;;8.37;52.16;100524.84;5134918;27;850;-60
2022/03/16 10:00:01;;;;;;;;;;;;;;;8.11;52.21;100526.41;5134841;27;798;-59
2022/03/16 10:02:28;;;;;;;;;;;;;;;7.74;52.99;100526.16;5134526;27;1346;-59
2022/03/16 10:04:54;;;;;;;;;;;;;;;7.78;53.61;100516.78;5134983;27;925;-60
2022/03/16 10:07:28;;;;;;;;;;;;;;;7.73;53.10;100519.84;5134585;27;904;-60
2022/03/16 10:15:25;;;;;;;;;;;;;;;7.22;54.06;100516.53;5119275;27;676;-60
2022/03/16 10:17:52;;;;;;;;;;;;;;;7.25;55.48;100510.28;5134658;27;814;-58
2022/03/16 10:20:19;;;;;;;;;;;;;;;7.35;55.30;100504.19;5134395;27;901;-60
2022/03/16 10:23:06;;;;;;;;;;;;;;;7.30;54.79;100501.75;5134378;27;1000;-60
2022/03/16 10:25:34;;;;;;;;;;;;;;;7.24;55.25;100506.75;5134270;27;1389;-59
2022/03/16 10:28:08;;;;;;;;;;;;;;;7.06;56.00;100503.66;5134402;27;868;-58
2022/03/16 10:30:35;;;;;;;;;;;;;;;7.08;56.38;100501.34;5134445;27;838;-60
2022/03/16 10:33:01;;;;;;;;;;;;;;;7.03;55.58;100487.06;5134436;27;1859;-60
2022/03/16 10:35:27;;;;;;;;;;;;;;;6.91;55.96;100486.06;5134349;27;932;-60
2022/03/16 10:38:06;;;;;;;;;;;;;;;6.87;56.30;100470.63;5134297;27;881;-60
2022/03/16 10:40:32;;;;;;;;;;;;;;;7.00;55.90;100471.28;5134074;27;890;-60
2022/03/16 10:48:56;;;;;;;;;;;;;;;6.70;57.07;100469.09;5133910;27;625;-60
2022/03/16 10:51:22;;;;;;;;;;;;;;;6.71;56.57;100474.25;5133802;27;874;-60
2022/03/16 10:53:52;;;;;;;;;;;;;;;6.72;56.81;100469.53;5133703;27;1878;-60
2022/03/16 10:56:19;;;;;;;;;;;;;;;6.66;57.30;100468.25;5133689;27;822;-60
2022/03/16 10:58:49;;;;;;;;;;;;;;;6.67;55.78;100459.63;5133724;27;818;-60
2022/03/16 11:01:16;;;;;;;;;;;;;;;6.69;56.54;100456.53;5133618;27;918;-59
2022/03/16 11:03:44;;;;;;;;;;;;;;;6.77;55.77;100449.25;5132558;27;1463;-59
2022/03/16 11:06:11;;;;;;;;;;;;;;;6.95;55.33;100447.66;5133481;27;854;-59
2022/03/16 11:08:39;;;;;;;;;;;;;;;6.97;56.19;100448.06;5133720;27;818;-59
2022/03/16 11:13:28;;;;;;;;;;;;;;;6.82;56.23;100448.94;5133484;27;854;-60
2022/03/16 11:13:52;;;;;;;;;;;;;;;6.79;57.12;100449.69;5133113;27;1906;-60
2022/03/16 11:16:20;;;;;;;;;;;;;;;6.69;56.33;100442.81;5133210;27;790;-60
2022/03/16 11:18:49;;;;;;;;;;;;;;;6.44;57.34;100445.78;5133272;27;893;-60
2022/03/16 11:21:20;;;;;;;;;;;;;;;6.24;57.68;100435.94;5133212;27;961;-60
2022/03/16 11:27:07;;;;;;;;;;;;;;;6.32;58.58;100432.22;5133186;27;629;-60
2022/03/16 11:29:45;;;;;;;;;;;;;;;6.30;59.33;100426.28;5118346;27;1316;-59
2022/03/16 11:32:16;;;;;;;;;;;;;;;6.29;58.44;100427.41;5132891;27;1906;-60
2022/03/16 11:34:56;;;;;;;;;;;;;;;6.27;58.46;100425.06;5133088;27;822;-60
2022/03/16 11:37:51;;;;;;;;;;;;;;;6.19;59.36;100417.81;5133023;27;893;-60
2022/03/16 11:40:20;;;;;;;;;;;;;;;6.12;58.90;100417.63;5115647;27;1293;-60
2022/03/16 11:43:19;;;;;;;;;;;;;;;6.11;59.11;100418.78;5132948;27;936;-60
2022/03/16 11:45:50;;;;;;;;;;;;;;;6.07;59.55;100413.22;5087402;27;1392;-60
2022/03/16 11:48:36;;;;;;;;;;;;;;;6.19;59.61;100419.72;5132833;27;953;-60
2022/03/16 11:51:13;;;;;;;;;;;;;;;6.37;59.54;100414.66;5133018;27;831;-60
2022/03/16 11:56:25;;;;;;;;;;;;;;;6.61;58.33;100400.63;5132771;27;667;-60
2022/03/16 11:58:56;;;;;;;;;;;;;;;6.71;58.54;100404.78;5132664;27;842;-60
2022/03/16 12:01:28;;;;;;;;;;;;;;;6.79;58.26;100406.50;5132506;27;1521;-60
2022/03/16 12:04:19;;;;;;;;;;;;;;;6.90;58.43;100398.47;5091785;28;926;-60
2022/03/16 12:07:04;;;;;;;;;;;;;;;6.92;59.00;100396.94;5091882;28;894;-59
2022/03/16 12:09:33;;;;;;;;;;;;;;;6.93;58.03;100395.81;5091700;28;845;-60
2022/03/16 12:14:58;;;;;;;;;;;;;;;7.21;57.23;100391.19;5091311;28;617;-60
2022/03/16 12:17:25;;;;;;;;;;;;;;;7.36;57.89;100391.09;5091663;28;814;-60
2022/03/16 12:20:10;;;;;;;;;;;;;;;7.35;57.74;100383.19;5091674;28;827;-60
2022/03/16 12:22:54;;;;;;;;;;;;;;;7.20;56.79;100373.91;5091601;28;830;-59
2022/03/16 12:25:27;;;;;;;;;;;;;;;7.05;57.05;100378.34;5091606;28;929;-59
2022/03/16 12:30:50;;;;;;;;;;;;;;;7.01;58.05;100379.44;5091464;28;601;-60
2022/03/16 12:33:20;;;;;;;;;;;;;;;6.97;58.35;100362.88;5091357;28;1878;-59
2022/03/16 12:35:47;;;;;;;;;;;;;;;7.00;58.02;100373.16;5091361;28;826;-59
2022/03/16 12:38:15;;;;;;;;;;;;;;;6.96;58.11;100375.03;5091478;28;830;-59
2022/03/16 12:43:47;;;;;;;;;;;;;;;6.91;58.33;100369.81;5028975;28;1157;-60
2022/03/16 12:46:24;;;;;;;;;;;;;;;6.88;58.43;100357.63;5029127;28;791;-60
2022/03/16 12:48:56;;;;;;;;;;;;;;;6.87;58.70;100355.22;5063009;28;888;-59
2022/03/16 12:51:38;;;;;;;;;;;;;;;6.91;58.31;100359.66;5091287;28;850;-60
2022/03/16 12:54:08;;;;;;;;;;;;;;;7.08;58.12;100358.41;5091660;28;1881;-60
2022/03/16 12:56:41;;;;;;;;;;;;;;;7.07;57.91;100354.03;5091211;28;842;-60
2022/03/16 12:59:08;;;;;;;;;;;;;;;7.13;57.70;100355.34;5091257;28;850;-60
2022/03/16 13:01:35;;;;;;;;;;;;;;;7.25;58.26;100350.81;5094165;28;1261;-60
2022/03/16 13:04:03;;;;;;;;;;;;;;;7.27;57.70;100353.97;5132150;28;826;-60
2022/03/16 13:06:33;;;;;;;;;;;;;;;7.12;57.49;100339.97;5132014;28;886;-60
2022/03/16 13:09:03;;;;;;;;;;;;;;;7.11;58.31;100340.38;5113618;28;1870;-60
2022/03/16 13:11:32;;;;;;;;;;;;;;;6.97;58.08;100340.91;5132012;28;936;-60
2022/03/16 13:14:03;;;;;;;;;;;;;;;6.90;58.20;100341.56;5131735;28;1971;-60
2022/03/16 13:16:37;;;;;;;;;;;;;;;6.81;58.97;100346.50;5131925;28;881;-58
2022/03/16 13:19:03;;;;;;;;;;;;;;;6.81;59.53;100351.22;5131984;28;877;-58
2022/03/16 13:21:30;;;;;;;;;;;;;;;6.82;58.99;100355.53;5131924;28;830;-60
2022/03/16 13:24:01;;;;;;;;;;;;;;;6.94;58.84;100358.13;5131849;28;858;-59
2022/03/16 13:26:30;;;;;;;;;;;;;;;7.00;59.42;100347.59;5132735;27;905;-60
2022/03/16 13:29:00;;;;;;;;;;;;;;;6.97;58.54;100354.63;5135514;27;814;-59
2022/03/16 13:31:30;;;;;;;;;;;;;;;6.97;58.81;100351.88;5135416;27;901;-59